Latest Weather Observations for Dennes Point

IDT60801

Issued at 8:34 pm EDT Saturday 20 December 2014 (issued every 30 minutes, with the page automatically refreshed every 10 minutes)

About weather observations | Map of weather stations | Latest weather observations for TAS | Other Formats
Station Details ID: 094255 Name: DENNES POINT Lat: -43.06 Lon: 147.36 Height: 5.67 m
Data from the previous 72 hours. | See also: Recent months at Dennes Point
Date/Time
EDT
Temp
°C
App
Temp
°C
Dew
Point
Rel
Hum
%
Delta-T
°C
Wind Press
QNH
hPa
Press
MSL
hPa
Rain
since 9 am
mm
Dir
 
Spd
km/h
Gust
km/h
Spd
kts
Gust
kts
20/08:30pm 13.6 10.3 8.0 69 2.8 S 15 24 8 13 1015.1 1015.1 0.0
20/08:00pm 14.4 10.4 8.4 67 3.0 S 19 30 10 16 1014.7 1014.7 0.0
20/07:30pm 14.8 9.2 8.7 67 3.1 S 28 43 15 23 1014.2 1014.2 0.0
20/07:00pm 15.1 11.1 8.1 63 3.5 S 19 30 10 16 1013.8 1013.8 0.0
20/06:30pm 17.3 12.7 8.2 55 4.6 S 22 35 12 19 1013.5 1013.5 0.0
20/06:00pm 17.0 12.3 7.9 55 4.6 S 22 33 12 18 1013.1 1013.0 0.0
20/05:30pm 18.2 13.3 8.5 53 5.0 SSW 24 35 13 19 1012.8 1012.7 0.0
20/05:00pm 19.3 15.3 9.2 52 5.3 S 20 30 11 16 1012.7 1012.6 0.0
20/04:30pm 18.6 14.6 9.1 54 5.0 S 20 32 11 17 1012.7 1012.6 0.0
20/04:00pm 18.7 14.7 9.2 54 5.0 S 20 32 11 17 1012.5 1012.4 0.0
20/03:30pm 19.5 16.5 7.9 47 6.0 SSW 13 20 7 11 1012.3 1012.2 0.0
20/03:00pm 19.0 15.4 8.4 50 5.5 SW 17 30 9 16 1012.5 1012.4 0.0
20/02:30pm 19.8 15.0 7.5 45 6.3 WSW 22 32 12 17 1012.3 1012.2 0.0
20/02:00pm 19.9 15.4 7.0 43 6.5 WSW 20 32 11 17 1012.2 1012.1 0.0
20/01:30pm 19.2 13.8 6.3 43 6.4 SW 24 35 13 19 1012.1 1012.0 0.0
20/01:00pm 19.9 14.6 7.0 43 6.5 SW 24 39 13 21 1012.0 1011.9 0.0
20/12:30pm 20.4 15.2 7.4 43 6.7 WSW 24 32 13 17 1012.0 1011.9 0.0
20/12:00pm 21.3 16.3 9.5 47 6.3 W 26 39 14 21 1012.0 1011.9 0.0
20/11:30am 20.1 13.7 8.4 47 6.1 WSW 32 44 17 24 1012.0 1011.9 0.0
20/11:00am 18.1 13.3 7.5 50 5.4 WSW 22 35 12 19 1012.0 1011.9 0.0
20/10:30am 17.8 16.6 9.7 59 4.3 W 6 9 3 5 1011.9 1011.8 0.0
20/10:00am 16.0 15.1 11.4 74 2.5 E 7 9 4 5 1011.9 1011.8 0.0
20/09:30am 16.4 15.6 11.6 73 2.6 ENE 7 11 4 6 1011.8 1011.7 0.0
20/09:00am 16.7 16.4 12.7 77 2.2 NNE 6 13 3 7 1011.6 1011.5 0.2
20/08:30am 15.8 13.9 11.8 77 2.2 N 13 19 7 10 1011.2 1011.1 0.2
20/08:00am 16.1 15.1 11.1 72 2.7 WNW 7 13 4 7 1010.9 1010.8 0.2
20/07:30am 15.2 12.8 10.0 71 2.7 NNW 13 17 7 9 1010.4 1010.3 0.2
20/07:00am 14.4 13.4 9.0 70 2.7 NNW 4 6 2 3 1010.1 1010.0 0.2
20/06:30am 14.6 13.3 9.2 70 2.8 N 6 7 3 4 1009.8 1009.7 0.2
20/05:30am 14.2 12.6 8.8 70 2.7 NNW 7 13 4 7 1009.6 1009.5 0.2
20/05:00am 14.1 12.1 8.5 69 2.8 NW 9 15 5 8 1009.6 1009.5 0.2
20/04:30am 14.0 12.4 8.2 68 2.9 N 6 9 3 5 1009.5 1009.4 0.2
20/04:00am 14.1 12.3 8.1 67 3.0 N 7 13 4 7 1009.7 1009.6 0.2
20/03:30am 14.0 12.1 7.5 65 3.2 NNW 7 11 4 6 1010.1 1010.0 0.2
20/03:00am 13.9 11.6 7.4 65 3.2 NW 9 17 5 9 1010.5 1010.4 0.2
20/02:30am 13.9 11.5 7.2 64 3.3 NNW 9 13 5 7 1010.9 1010.8 0.2
20/02:00am 14.0 10.6 7.8 66 3.1 N 15 20 8 11 1011.2 1011.1 0.2
20/01:30am 13.8 11.0 7.1 64 3.3 NW 11 19 6 10 1011.8 1011.7 0.2
20/01:00am 13.8 10.2 6.9 63 3.3 NNW 15 19 8 10 1012.1 1012.0 0.2
20/12:30am 13.9 10.7 7.0 63 3.4 NNW 13 15 7 8 1012.5 1012.4 0.2
20/12:00am 14.2 11.4 7.0 62 3.5 NNW 11 19 6 10 1012.9 1012.8 0.2
 
Date/Time
EDT
Temp
°C
App
Temp
°C
Dew
Point
Rel
Hum
%
Delta-T
°C
Wind Press
QNH
hPa
Press
MSL
hPa
Rain
since 9 am
mm
Dir
 
Spd
km/h
Gust
km/h
Spd
kts
Gust
kts
19/11:30pm 14.1 10.7 6.0 58 3.9 WNW 13 20 7 11 1013.2 1013.2 0.2
19/11:00pm 14.3 11.9 5.1 54 4.3 NW 7 13 4 7 1013.5 1013.5 0.2
19/10:30pm 14.4 11.6 5.0 53 4.4 NW 9 19 5 10 1013.6 1013.6 0.2
19/10:00pm 14.4 10.8 5.0 53 4.4 WNW 13 20 7 11 1014.0 1014.0 0.2
19/09:30pm 14.5 9.5 4.8 52 4.5 W 20 26 11 14 1013.8 1013.8 0.2
19/09:00pm 15.0 9.0 5.2 52 4.6 W 26 33 14 18 1013.6 1013.6 0.2
19/08:30pm 15.3 10.8 4.4 48 5.1 W 17 22 9 12 1013.4 1013.4 0.2
19/08:00pm 15.6 10.7 4.3 47 5.3 WNW 19 26 10 14 1013.3 1013.3 0.2
19/07:30pm 15.7 11.3 5.0 49 5.1 W 17 20 9 11 1013.3 1013.3 0.2
19/07:00pm 15.9 11.1 4.6 47 5.3 W 19 24 10 13 1012.9 1012.8 0.2
19/06:30pm 16.1 10.1 5.1 48 5.2 WSW 26 32 14 17 1012.7 1012.6 0.2
19/06:00pm 16.4 11.3 4.1 44 5.7 W 20 32 11 17 1012.5 1012.4 0.2
19/05:30pm 16.6 11.4 3.7 42 6.0 WSW 20 30 11 16 1012.3 1012.2 0.2
19/05:00pm 17.1 12.0 3.1 39 6.4 WSW 19 24 10 13 1012.4 1012.3 0.2
19/04:30pm 18.3 13.3 3.8 38 6.8 WSW 19 24 10 13 1012.3 1012.2 0.2
19/04:00pm 15.7 12.8 6.7 55 4.4 SE 11 17 6 9 1012.3 1012.2 0.2
19/03:30pm 16.8 13.8 7.7 55 4.6 ESE 13 19 7 10 1012.3 1012.2 0.2
19/03:00pm 15.2 11.7 7.3 59 3.9 ESE 15 20 8 11 1012.0 1011.9 0.2
19/02:30pm 17.9 14.9 5.8 45 5.9 WSW 11 17 6 9 1012.1 1012.0 0.2
19/02:00pm 16.6 12.1 4.3 44 5.8 W 17 20 9 11 1011.8 1011.7 0.2
19/01:30pm 16.2 12.0 5.5 49 5.1 W 17 22 9 12 1012.0 1011.9 0.2
19/01:00pm 15.8 12.6 6.8 55 4.4 W 13 17 7 9 1012.2 1012.1 0.2
19/12:30pm 16.2 14.2 6.1 51 4.9 ESE 6 13 3 7 1012.0 1011.9 0.0
19/12:00pm 15.8 11.4 4.8 48 5.2 W 17 24 9 13 1012.1 1012.0 0.0
19/11:30am 15.2 9.4 4.6 49 4.9 WSW 24 33 13 18 1012.2 1012.1 0.0
19/11:00am 15.0 11.0 2.9 44 5.4 WSW 13 22 7 12 1012.1 1012.0 0.0
19/10:30am 14.6 10.5 2.5 44 5.4 WSW 13 20 7 11 1012.1 1012.0 0.0
19/10:00am 14.4 11.4 4.1 50 4.7 WSW 9 11 5 6 1012.2 1012.1 0.0
19/09:30am 14.3 11.3 4.3 51 4.6 W 9 15 5 8 1012.4 1012.3 0.0
19/09:00am 14.0 10.3 4.6 53 4.3 WSW 13 17 7 9 1012.4 1012.3 0.0
19/08:30am 12.7 9.4 6.3 65 3.0 SW 13 22 7 12 1012.0 1011.9 0.0
19/08:00am 12.4 8.8 5.1 61 3.4 W 13 19 7 10 1011.7 1011.6 0.0
19/07:30am 13.3 9.7 5.2 58 3.8 WNW 13 19 7 10 1011.3 1011.2 0.0
19/07:00am 11.8 7.8 4.8 62 3.2 WSW 15 19 8 10 1010.9 1010.8 0.0
19/06:30am 11.4 8.5 6.3 71 2.4 W 11 19 6 10 1010.5 1010.4 0.0
19/06:00am 10.4 8.1 5.6 72 2.2 WNW 7 11 4 6 1010.2 1010.1 0.0
19/05:30am 9.8 7.7 5.6 75 1.9 SSW 6 7 3 4 1009.8 1009.7 0.0
19/05:00am 9.5 6.6 4.7 72 2.1 SW 9 17 5 9 1009.1 1009.0 0.0
19/04:30am 10.8 6.1 5.3 69 2.5 WSW 19 24 10 13 1008.7 1008.6 0.0
19/04:00am 10.6 7.9 5.6 71 2.3 SSW 9 13 5 7 1008.5 1008.4 0.0
19/03:30am 11.4 6.7 6.1 70 2.5 WSW 20 28 11 15 1008.1 1008.0 0.0
19/03:00am 11.2 6.5 5.9 70 2.5 WSW 20 26 11 14 1008.0 1007.9 0.0
19/02:30am 11.2 6.4 5.5 68 2.6 WSW 20 26 11 14 1007.8 1007.7 0.0
19/02:00am 11.4 6.6 5.7 68 2.6 WSW 20 26 11 14 1007.8 1007.7 0.0
19/01:30am 11.6 5.6 5.5 66 2.8 WSW 26 32 14 17 1007.6 1007.5 0.0
19/01:00am 11.8 6.3 5.7 66 2.8 WSW 24 30 13 16 1007.2 1007.1 0.0
19/12:30am 11.8 7.2 5.7 66 2.8 WSW 19 26 10 14 1007.0 1006.9 0.0
19/12:00am 12.1 7.4 5.3 63 3.2 WSW 19 26 10 14 1006.8 1006.7 0.0
 
Date/Time
EDT
Temp
°C
App
Temp
°C
Dew
Point
Rel
Hum
%
Delta-T
°C
Wind Press
QNH
hPa
Press
MSL
hPa
Rain
since 9 am
mm
Dir
 
Spd
km/h
Gust
km/h
Spd
kts
Gust
kts
18/11:30pm 12.3 7.5 4.8 60 3.4 WSW 19 26 10 14 1006.4 1006.3 0.0
18/11:00pm 12.5 7.1 4.7 59 3.6 WSW 22 28 12 15 1006.3 1006.2 0.0
18/10:30pm 12.9 6.9 5.1 59 3.6 WSW 26 35 14 19 1006.2 1006.1 0.0
18/10:00pm 13.2 7.5 5.1 58 3.8 WSW 24 33 13 18 1006.0 1005.9 0.0
18/09:30pm 13.4 7.1 5.6 59 3.7 W 28 41 15 22 1005.1 1005.0 0.0
18/09:00pm 13.9 5.3 6.3 60 3.7 WSW 41 61 22 33 1004.2 1004.1 0.0
18/08:43pm 14.3 7.4 6.4 59 3.8 WSW 32 50 17 27 1003.9 1003.8 0.0
18/08:30pm 14.5 6.5 5.6 55 4.2 WSW 37 46 20 25 1003.6 1003.5 0.0
18/08:00pm 15.5 9.2 5.7 52 4.7 WSW 28 39 15 21 1003.1 1003.0 0.0
18/07:30pm 16.2 10.9 6.9 54 4.6 W 24 32 13 17 1002.5 1002.4 0.0
18/07:00pm 16.6 12.2 7.5 55 4.6 W 20 30 11 16 1001.9 1001.9 0.0
18/06:30pm 16.4 10.9 7.6 56 4.4 W 26 35 14 19 1001.2 1001.2 0.0
18/06:08pm 16.9 11.1 8.1 56 4.5 W 28 46 15 25 1000.9 1000.9 0.0
18/06:00pm 17.0 12.5 8.4 57 4.4 W 22 28 12 15 1001.0 1001.0 0.0
18/05:30pm 16.7 12.7 8.1 57 4.4 W 19 28 10 15 1000.9 1000.9 0.0
18/05:00pm 15.9 11.4 8.4 61 3.8 W 22 28 12 15 1000.6 1000.6 0.0
18/04:30pm 14.9 11.0 8.6 66 3.2 W 19 26 10 14 1000.5 1000.5 0.0
18/04:00pm 15.1 8.8 8.8 66 3.2 W 32 43 17 23 1000.6 1000.6 0.0
18/03:30pm 18.6 12.1 8.3 51 5.3 WNW 32 52 17 28 999.9 999.9 0.0
18/03:25pm 18.6 12.3 8.8 53 5.1 WNW 32 52 17 28 999.7 999.7 0.0
18/03:22pm 18.9 12.7 8.0 49 5.6 WNW 30 52 16 28 999.5 999.5 0.0
18/03:00pm 19.5 15.0 8.5 49 5.8 NW 22 32 12 17 999.2 999.2 0.0
18/02:30pm 18.5 12.4 9.8 57 4.6 N 32 39 17 21 999.2 999.2 0.0
18/02:00pm 18.7 12.4 8.9 53 5.1 N 32 39 17 21 999.1 999.1 0.0
18/01:30pm 19.2 15.0 7.6 47 5.9 NNE 19 33 10 18 999.4 999.4 0.0
18/01:00pm 19.1 15.9 10.1 56 4.8 NNE 17 22 9 12 999.8 999.8 0.0
18/12:30pm 18.8 14.7 10.1 57 4.6 NNE 22 30 12 16 1000.4 1000.4 0.0
18/12:00pm 18.3 14.3 10.4 60 4.3 N 22 28 12 15 1000.9 1000.9 0.0
18/11:30am 18.4 15.0 9.2 55 4.8 NE 17 20 9 11 1001.2 1001.2 0.0
18/11:00am 17.8 13.8 8.1 53 5.0 NNE 19 24 10 13 1001.5 1001.5 0.0
18/10:30am 16.1 11.0 7.6 57 4.2 NNE 24 30 13 16 1001.9 1001.9 0.0
18/10:00am 16.3 10.9 7.8 57 4.3 N 26 32 14 17 1002.3 1002.2 0.0
18/09:30am 15.7 9.9 8.0 60 3.9 N 28 33 15 18 1002.7 1002.6 0.0
18/09:00am 15.4 9.9 7.4 59 4.0 N 26 33 14 18 1002.9 1002.8 0.0
18/08:30am 15.4 12.8 6.2 54 4.4 NE 9 26 5 14 1003.1 1003.0 0.0
18/08:00am 14.7 12.3 4.4 50 4.8 WSW 6 9 3 5 1003.3 1003.2 0.0
18/07:30am 13.6 9.3 6.9 64 3.2 N 19 24 10 13 1003.4 1003.3 0.0
18/07:00am 13.3 11.5 5.5 59 3.7 NE 4 6 2 3 1003.3 1003.2 0.0
18/06:30am 12.4 11.1 5.8 64 3.1 W 2 7 1 4 1003.5 1003.4 0.0
18/06:00am 12.1 10.9 4.8 61 3.4 CALM 0 0 0 0 1003.3 1003.2 0.0
18/05:30am 12.0 10.4 4.7 61 3.3 S 2 6 1 3 1003.3 1003.2 0.0
18/05:00am 10.7 8.7 4.4 65 2.8 NNW 4 7 2 4 1003.3 1003.2 0.0
18/04:30am 11.8 10.5 4.3 60 3.4 CALM 0 4 0 2 1003.2 1003.1 0.0
18/04:00am 12.1 9.4 3.6 56 3.8 WNW 7 9 4 5 1003.4 1003.3 0.0
18/03:30am 11.6 7.8 4.1 60 3.4 W 13 15 7 8 1003.6 1003.5 0.0
18/03:00am 10.2 7.4 5.2 71 2.3 SW 9 13 5 7 1003.7 1003.6 0.0
18/02:30am 10.9 8.7 5.2 68 2.6 SSW 6 9 3 5 1003.7 1003.6 0.0
18/02:00am 11.5 8.8 5.8 68 2.7 SSW 9 11 5 6 1004.0 1003.9 0.0
18/01:30am 12.4 10.3 5.6 63 3.2 WSW 6 7 3 4 1004.2 1004.1 0.0
18/01:00am 12.8 10.2 5.9 63 3.3 SSW 9 11 5 6 1004.7 1004.6 0.0
18/12:30am 12.7 10.2 6.5 66 3.0 SW 9 11 5 6 1004.8 1004.7 0.0
18/12:00am 13.1 11.2 7.5 69 2.7 SSW 7 9 4 5 1005.0 1004.9 0.0
 
Date/Time
EDT
Temp
°C
App
Temp
°C
Dew
Point
Rel
Hum
%
Delta-T
°C
Wind Press
QNH
hPa
Press
MSL
hPa
Rain
since 9 am
mm
Dir
 
Spd
km/h
Gust
km/h
Spd
kts
Gust
kts
17/11:30pm 14.6 12.6 8.5 67 3.1 N 9 11 5 6 1005.2 1005.1 0.0
17/11:00pm 14.6 11.4 9.8 73 2.5 NE 17 20 9 11 1005.5 1005.4 0.0
17/10:30pm 14.8 11.2 9.8 72 2.6 ENE 19 22 10 12 1006.0 1005.9 0.0
17/10:00pm 14.8 10.9 9.4 70 2.8 NE 20 28 11 15 1006.0 1005.9 0.0
17/09:30pm 14.8 9.7 9.2 69 2.9 NE 26 32 14 17 1005.9 1005.8 0.0
17/09:00pm 14.8 10.4 9.0 68 3.0 ENE 22 28 12 15 1005.8 1005.7 0.0

Other Formats:

Comma delimited format used in spreadsheet applications
http://www.bom.gov.au/fwo/IDT60801/IDT60801.94988.axf

JavaScript Object Notation format (JSON) in row-major order
http://www.bom.gov.au/fwo/IDT60801/IDT60801.94988.json